createdAt,value
2023-02-06T00:00:29.671Z,0.00
2023-02-06T00:01:29.672Z,0.00
2023-02-06T00:02:29.710Z,0.00
2023-02-06T00:03:29.657Z,0.00
2023-02-06T00:04:29.634Z,0.00
2023-02-06T00:05:29.663Z,0.00
2023-02-06T00:06:29.614Z,0.00
2023-02-06T00:07:29.600Z,0.00
2023-02-06T00:08:29.586Z,0.00
2023-02-06T00:09:29.597Z,0.00
2023-02-06T00:10:29.556Z,0.00
2023-02-06T00:11:29.562Z,0.00
2023-02-06T00:12:29.542Z,0.00
2023-02-06T00:13:29.548Z,0.00
2023-02-06T00:14:29.546Z,0.00
2023-02-06T00:15:29.508Z,0.00
2023-02-06T00:16:29.496Z,0.00
2023-02-06T00:17:29.501Z,0.00
2023-02-06T00:18:29.492Z,0.00
2023-02-06T00:19:29.465Z,0.00
2023-02-06T00:20:29.469Z,0.00
2023-02-06T00:21:29.441Z,0.00
2023-02-06T00:22:29.437Z,0.00
2023-02-06T00:23:29.427Z,0.00
2023-02-06T00:24:29.437Z,0.00
2023-02-06T00:25:29.409Z,0.00
2023-02-06T00:26:29.397Z,0.00
2023-02-06T00:27:29.381Z,0.00
2023-02-06T00:28:29.365Z,0.00
2023-02-06T00:29:29.354Z,0.00
2023-02-06T00:30:29.396Z,0.00
2023-02-06T00:31:29.420Z,0.00
2023-02-06T00:32:29.378Z,0.00
2023-02-06T00:33:29.316Z,0.00
2023-02-06T00:34:29.325Z,0.00
2023-02-06T00:35:29.302Z,0.00
2023-02-06T00:36:29.308Z,0.00
2023-02-06T00:37:29.293Z,0.00
2023-02-06T00:38:29.256Z,0.00
2023-02-06T00:39:29.255Z,0.00
2023-02-06T00:40:29.244Z,0.00
2023-02-06T00:41:29.240Z,0.00
2023-02-06T00:42:29.228Z,0.00
2023-02-06T00:43:29.210Z,0.00
2023-02-06T00:44:29.205Z,0.00
2023-02-06T00:45:29.184Z,0.00
2023-02-06T00:46:29.343Z,0.00
2023-02-06T00:47:29.178Z,0.00
2023-02-06T00:48:29.159Z,0.00
2023-02-06T00:49:29.146Z,0.00
2023-02-06T00:50:34.890Z,0.00
2023-02-06T00:51:30.174Z,0.00
2023-02-06T00:52:29.196Z,0.00
2023-02-06T00:53:29.101Z,0.00
2023-02-06T00:54:29.095Z,0.00
2023-02-06T00:55:29.084Z,0.00
2023-02-06T00:56:29.095Z,0.00
2023-02-06T00:57:29.081Z,0.00
2023-02-06T00:58:29.046Z,0.00
2023-02-06T00:59:29.051Z,0.00
2023-02-06T01:00:29.033Z,0.00
2023-02-06T01:01:29.030Z,0.00
2023-02-06T01:02:29.076Z,0.00
2023-02-06T01:03:29.001Z,0.00
2023-02-06T01:04:29.011Z,0.00
2023-02-06T01:05:28.972Z,0.00
2023-02-06T01:06:28.958Z,0.00
2023-02-06T01:07:34.947Z,0.00
2023-02-06T01:08:29.988Z,0.00
2023-02-06T01:09:28.968Z,0.00
2023-02-06T01:10:28.928Z,0.00
2023-02-06T01:11:28.918Z,0.00
2023-02-06T01:12:28.906Z,0.00
2023-02-06T01:13:28.887Z,0.00
2023-02-06T01:14:28.873Z,0.00
2023-02-06T01:15:28.884Z,0.00
2023-02-06T01:16:28.955Z,0.00
2023-02-06T01:17:28.853Z,0.00
2023-02-06T01:18:28.876Z,0.00
2023-02-06T01:19:28.861Z,0.00
2023-02-06T01:20:28.818Z,0.00
2023-02-06T01:21:28.815Z,0.00
2023-02-06T01:22:28.792Z,0.00
2023-02-06T01:23:28.785Z,0.00
2023-02-06T01:24:28.827Z,0.00
2023-02-06T01:25:28.794Z,0.00
2023-02-06T01:26:28.765Z,0.00
2023-02-06T01:27:28.737Z,0.00
2023-02-06T01:28:28.768Z,0.00
2023-02-06T01:29:28.742Z,0.00
2023-02-06T01:30:28.747Z,0.00
2023-02-06T01:31:28.769Z,0.00
2023-02-06T01:32:28.704Z,0.00
2023-02-06T01:33:28.688Z,0.00
2023-02-06T01:34:28.708Z,0.00
2023-02-06T01:35:28.681Z,0.00
2023-02-06T01:36:28.651Z,0.00
2023-02-06T01:37:28.633Z,0.00
2023-02-06T01:38:28.632Z,0.00
2023-02-06T01:39:28.638Z,0.00
2023-02-06T01:40:28.655Z,0.00
2023-02-06T01:41:28.615Z,0.00
2023-02-06T01:42:28.580Z,0.00
2023-02-06T01:43:28.577Z,0.00
2023-02-06T01:44:28.558Z,0.00
2023-02-06T01:45:28.584Z,0.00
2023-02-06T01:46:28.556Z,0.00
2023-02-06T01:47:28.529Z,0.00
2023-02-06T01:48:28.538Z,0.00
2023-02-06T01:49:28.513Z,0.00
2023-02-06T01:50:28.545Z,0.00
2023-02-06T01:51:28.494Z,0.00
2023-02-06T01:52:28.477Z,0.00
2023-02-06T01:53:28.476Z,0.00
2023-02-06T01:54:28.467Z,0.00
2023-02-06T01:55:28.440Z,0.00
2023-02-06T01:56:28.482Z,0.00
2023-02-06T01:57:28.437Z,0.00
2023-02-06T01:58:28.421Z,0.00
2023-02-06T01:59:28.410Z,0.00
2023-02-06T02:00:28.429Z,0.00
2023-02-06T02:01:28.423Z,0.00
2023-02-06T02:02:28.372Z,0.00
2023-02-06T02:03:28.357Z,0.00
2023-02-06T02:04:28.355Z,0.00
2023-02-06T02:05:28.346Z,0.00
2023-02-06T02:06:28.341Z,0.00
2023-02-06T02:07:28.357Z,0.00
2023-02-06T02:08:28.328Z,0.00
2023-02-06T02:09:28.294Z,0.00
2023-02-06T02:10:28.289Z,0.00
2023-02-06T02:11:28.283Z,0.00
2023-02-06T02:12:28.311Z,0.00
2023-02-06T02:13:28.250Z,0.00
2023-02-06T02:14:28.254Z,0.00
2023-02-06T02:15:28.229Z,0.00
2023-02-06T02:16:28.287Z,0.00
2023-02-06T02:17:28.256Z,0.00
2023-02-06T02:18:28.201Z,0.00
2023-02-06T02:19:28.192Z,0.00
2023-02-06T02:20:28.189Z,0.00
2023-02-06T02:21:28.174Z,0.00
2023-02-06T02:22:28.199Z,0.00
2023-02-06T02:23:28.168Z,0.00
2023-02-06T02:24:30.860Z,0.00
2023-02-06T02:25:28.136Z,0.00
2023-02-06T02:26:28.130Z,0.00
2023-02-06T02:27:28.129Z,0.00
2023-02-06T02:28:28.145Z,0.00
2023-02-06T02:29:28.103Z,0.00
2023-02-06T02:30:28.191Z,0.00
2023-02-06T02:31:28.135Z,0.00
2023-02-06T02:32:28.125Z,0.00
2023-02-06T02:33:28.094Z,0.00
2023-02-06T02:34:28.047Z,0.00
2023-02-06T02:35:28.045Z,0.00
2023-02-06T02:36:28.025Z,0.00
2023-02-06T02:37:28.036Z,0.00
2023-02-06T02:38:28.007Z,0.00
2023-02-06T02:39:28.023Z,0.00
2023-02-06T02:40:27.990Z,0.00
2023-02-06T02:41:27.968Z,0.00
2023-02-06T02:42:27.961Z,0.00
2023-02-06T02:43:27.977Z,0.00
2023-02-06T02:44:28.007Z,0.00
2023-02-06T02:45:27.972Z,0.00
2023-02-06T02:46:27.918Z,0.00
2023-02-06T02:47:27.924Z,0.00
2023-02-06T02:48:27.925Z,0.00
2023-02-06T02:49:27.930Z,0.00
2023-02-06T02:50:27.922Z,0.00
2023-02-06T02:51:27.853Z,0.00
2023-02-06T02:52:27.860Z,0.00
2023-02-06T02:53:27.851Z,0.00
2023-02-06T02:54:27.843Z,0.00
2023-02-06T02:55:27.842Z,0.00
2023-02-06T02:56:27.813Z,0.00
2023-02-06T02:57:27.818Z,0.00
2023-02-06T02:58:27.795Z,0.00
2023-02-06T02:59:27.814Z,0.00
2023-02-06T03:00:27.816Z,0.00
2023-02-06T03:01:27.775Z,0.00
2023-02-06T03:02:27.820Z,0.00
2023-02-06T03:03:27.757Z,0.00
2023-02-06T03:04:27.721Z,0.00
2023-02-06T03:05:27.730Z,0.00
2023-02-06T03:06:27.707Z,0.00
2023-02-06T03:07:27.695Z,0.00
2023-02-06T03:08:27.688Z,0.00
2023-02-06T03:09:27.689Z,0.00
2023-02-06T03:10:27.666Z,0.00
2023-02-06T03:11:27.644Z,0.00
2023-02-06T03:12:27.635Z,0.00
2023-02-06T03:13:27.640Z,0.00
2023-02-06T03:14:27.651Z,0.00
2023-02-06T03:15:27.606Z,0.00
2023-02-06T03:16:27.671Z,0.00
2023-02-06T03:17:27.582Z,0.00
2023-02-06T03:18:27.578Z,0.00
2023-02-06T03:19:27.567Z,0.00
2023-02-06T03:20:27.561Z,0.00
2023-02-06T03:21:27.593Z,0.00
2023-02-06T03:22:27.563Z,0.00
2023-02-06T03:23:27.519Z,0.00
2023-02-06T03:24:27.522Z,0.00
2023-02-06T03:25:27.499Z,0.00
2023-02-06T03:26:27.505Z,0.00
2023-02-06T03:27:27.501Z,0.00
2023-02-06T03:28:27.469Z,0.00
2023-02-06T03:29:27.468Z,0.00
2023-02-06T03:30:27.502Z,0.00
2023-02-06T03:31:27.461Z,0.00
2023-02-06T03:32:27.462Z,0.00
2023-02-06T03:33:27.424Z,0.00
2023-02-06T03:34:27.422Z,0.00
2023-02-06T03:35:27.411Z,0.00
2023-02-06T03:36:27.400Z,0.00
2023-02-06T03:37:27.392Z,0.00
2023-02-06T03:38:27.368Z,0.00
2023-02-06T03:39:27.360Z,0.00
2023-02-06T03:40:27.348Z,0.00
2023-02-06T03:41:27.350Z,0.00
2023-02-06T03:42:27.342Z,0.00
2023-02-06T03:43:27.316Z,0.00
2023-02-06T03:44:27.297Z,0.00
2023-02-06T03:45:27.303Z,0.00
2023-02-06T03:46:27.280Z,0.00
2023-02-06T03:47:27.279Z,0.00
2023-02-06T03:48:27.302Z,0.00
2023-02-06T03:49:27.253Z,0.00
2023-02-06T03:50:27.248Z,0.00
2023-02-06T03:51:27.228Z,0.00
2023-02-06T03:52:27.225Z,0.00
2023-02-06T03:53:27.234Z,0.00
2023-02-06T03:54:27.200Z,0.00
2023-02-06T03:55:27.189Z,0.00
2023-02-06T03:56:27.193Z,0.00
2023-02-06T03:57:27.180Z,0.00
2023-02-06T03:58:27.182Z,0.00
2023-02-06T03:59:27.165Z,0.00
2023-02-06T04:00:27.144Z,0.00
2023-02-06T04:01:27.156Z,0.00
2023-02-06T04:02:27.151Z,0.00
2023-02-06T04:03:27.100Z,0.00
2023-02-06T04:04:27.132Z,0.00
2023-02-06T04:05:27.094Z,0.00
2023-02-06T04:06:27.086Z,0.00
2023-02-06T04:07:27.063Z,0.00
2023-02-06T04:08:27.059Z,0.00
2023-02-06T04:09:27.069Z,0.00
2023-02-06T04:10:27.034Z,0.00
2023-02-06T04:11:27.052Z,0.00
2023-02-06T04:12:27.008Z,0.00
2023-02-06T04:13:27.010Z,0.00
2023-02-06T04:14:27.000Z,0.00
2023-02-06T04:15:26.992Z,0.00
2023-02-06T04:16:27.017Z,0.00
2023-02-06T04:17:43.035Z,0.00
2023-02-06T04:18:27.961Z,0.00
2023-02-06T04:19:26.942Z,0.00
2023-02-06T04:20:26.984Z,0.00
2023-02-06T04:21:26.941Z,0.00
2023-02-06T04:22:26.918Z,0.00
2023-02-06T04:23:26.906Z,0.00
2023-02-06T04:24:29.317Z,0.00
2023-02-06T04:25:26.886Z,0.00
2023-02-06T04:26:26.889Z,0.00
2023-02-06T04:27:26.869Z,0.00
2023-02-06T04:28:26.862Z,0.00
2023-02-06T04:29:26.838Z,0.00
2023-02-06T04:30:26.953Z,0.00
2023-02-06T04:31:26.916Z,0.00
2023-02-06T04:32:26.824Z,0.00
2023-02-06T04:33:26.809Z,0.00
2023-02-06T04:34:26.779Z,0.00
2023-02-06T04:35:26.775Z,0.00
2023-02-06T04:36:26.768Z,0.00
2023-02-06T04:37:26.766Z,0.00
2023-02-06T04:38:26.739Z,0.00
2023-02-06T04:39:26.732Z,0.00
2023-02-06T04:40:26.731Z,0.00
2023-02-06T04:41:26.701Z,0.00
2023-02-06T04:42:26.704Z,0.00
2023-02-06T04:43:26.679Z,0.00
2023-02-06T04:44:26.672Z,0.00
2023-02-06T04:45:26.674Z,0.00
2023-02-06T04:46:26.699Z,0.00
2023-02-06T04:47:26.645Z,0.00
2023-02-06T04:48:26.651Z,0.00
2023-02-06T04:49:26.625Z,0.00
2023-02-06T04:50:26.608Z,0.00
2023-02-06T04:51:26.604Z,0.00
2023-02-06T04:52:26.602Z,0.00
2023-02-06T04:53:26.636Z,0.00
2023-02-06T04:54:26.575Z,0.00
2023-02-06T04:55:26.551Z,0.00
2023-02-06T04:56:26.581Z,0.00
2023-02-06T04:57:26.549Z,0.00
2023-02-06T04:58:26.520Z,0.00
2023-02-06T04:59:26.523Z,0.00
2023-02-06T05:00:26.500Z,0.00
2023-02-06T05:01:26.522Z,0.00
2023-02-06T05:02:26.491Z,0.00
2023-02-06T05:03:26.468Z,0.00
2023-02-06T05:04:26.489Z,0.00
2023-02-06T05:05:26.458Z,0.00
2023-02-06T05:06:26.435Z,0.00
2023-02-06T05:07:26.457Z,0.00
2023-02-06T05:08:26.439Z,0.00
2023-02-06T05:09:26.404Z,0.00
2023-02-06T05:10:26.403Z,0.00
2023-02-06T05:11:26.385Z,0.00
2023-02-06T05:12:26.369Z,0.00
2023-02-06T05:13:26.372Z,0.00
2023-02-06T05:14:26.367Z,0.00
2023-02-06T05:15:26.358Z,0.00
2023-02-06T05:16:26.337Z,0.00
2023-02-06T05:17:26.333Z,0.00
2023-02-06T05:18:26.328Z,0.00
2023-02-06T05:19:26.298Z,0.00
2023-02-06T05:20:26.296Z,0.00
2023-02-06T05:21:26.271Z,0.00
2023-02-06T05:22:26.288Z,0.00
2023-02-06T05:23:26.277Z,0.00
2023-02-06T05:24:26.268Z,0.00
2023-02-06T05:25:26.235Z,0.00
2023-02-06T05:26:26.224Z,0.00
2023-02-06T05:27:26.257Z,0.00
2023-02-06T05:28:26.211Z,0.00
2023-02-06T05:29:26.200Z,0.00
2023-02-06T05:30:26.193Z,0.00
2023-02-06T05:31:26.318Z,0.00
2023-02-06T05:32:26.177Z,0.00
2023-02-06T05:33:26.165Z,0.00
2023-02-06T05:34:26.137Z,0.00
2023-02-06T05:35:26.124Z,0.00
2023-02-06T05:36:26.120Z,0.00
2023-02-06T05:37:26.108Z,0.00
2023-02-06T05:38:26.109Z,0.00
2023-02-06T05:39:26.118Z,0.00
2023-02-06T05:40:26.088Z,0.00
2023-02-06T05:41:26.064Z,0.00
2023-02-06T05:42:26.060Z,0.00
2023-02-06T05:43:26.068Z,0.00
2023-02-06T05:44:26.049Z,0.00
2023-02-06T05:45:26.021Z,0.00
2023-02-06T05:46:26.046Z,0.00
2023-02-06T05:47:26.049Z,0.00
2023-02-06T05:48:25.998Z,0.00
2023-02-06T05:49:26.017Z,0.00
2023-02-06T05:50:25.976Z,0.00
2023-02-06T05:51:25.969Z,0.00
2023-02-06T05:52:25.949Z,0.00
2023-02-06T05:53:25.947Z,0.00
2023-02-06T05:54:25.936Z,0.00
2023-02-06T05:55:25.940Z,0.00
2023-02-06T05:56:25.940Z,0.00
2023-02-06T05:57:25.904Z,0.00
2023-02-06T05:58:25.980Z,0.00
2023-02-06T05:59:25.877Z,0.00
2023-02-06T06:00:25.872Z,0.00
2023-02-06T06:01:25.881Z,0.00
2023-02-06T06:02:25.863Z,0.00
2023-02-06T06:03:25.833Z,0.00
2023-02-06T06:04:25.839Z,0.00
2023-02-06T06:05:25.875Z,0.00
2023-02-06T06:06:25.808Z,0.00
2023-02-06T06:07:25.799Z,0.00
2023-02-06T06:08:25.795Z,0.00
2023-02-06T06:09:25.782Z,0.00
2023-02-06T06:10:25.769Z,0.00
2023-02-06T06:11:25.763Z,0.00
2023-02-06T06:12:25.764Z,0.00
2023-02-06T06:13:25.744Z,0.00
2023-02-06T06:14:25.732Z,0.00
2023-02-06T06:15:25.714Z,0.00
2023-02-06T06:16:25.771Z,0.00
2023-02-06T06:17:25.721Z,4.00
2023-02-06T06:18:25.688Z,4.00
2023-02-06T06:19:25.687Z,4.00
2023-02-06T06:20:25.671Z,0.00
2023-02-06T06:21:25.658Z,4.00
2023-02-06T06:22:25.665Z,4.00
2023-02-06T06:23:25.639Z,4.00
2023-02-06T06:24:25.622Z,0.00
2023-02-06T06:25:25.611Z,4.00
2023-02-06T06:26:25.680Z,4.00
2023-02-06T06:27:25.592Z,4.00
2023-02-06T06:28:25.642Z,8.00
2023-02-06T06:29:25.577Z,8.00
2023-02-06T06:30:25.559Z,8.00
2023-02-06T06:31:25.659Z,8.00
2023-02-06T06:32:25.541Z,8.00
2023-02-06T06:33:25.534Z,12.00
2023-02-06T06:34:25.535Z,12.00
2023-02-06T06:35:25.507Z,16.00
2023-02-06T06:36:25.503Z,20.00
2023-02-06T06:37:25.489Z,20.00
2023-02-06T06:38:25.516Z,20.00
2023-02-06T06:39:25.470Z,24.00
2023-02-06T06:40:25.465Z,24.00
2023-02-06T06:41:25.447Z,28.00
2023-02-06T06:42:25.439Z,28.00
2023-02-06T06:43:25.417Z,32.00
2023-02-06T06:44:25.468Z,36.00
2023-02-06T06:45:25.445Z,40.00
2023-02-06T06:46:25.397Z,44.00
2023-02-06T06:47:25.374Z,44.00
2023-02-06T06:48:25.378Z,48.00
2023-02-06T06:49:25.352Z,48.00
2023-02-06T06:50:25.376Z,48.00
2023-02-06T06:51:25.347Z,52.00
2023-02-06T06:52:25.901Z,56.00
2023-02-06T06:53:25.317Z,60.00
2023-02-06T06:54:25.317Z,68.00
2023-02-06T06:55:25.314Z,76.00
2023-02-06T06:56:25.278Z,76.00
2023-02-06T06:57:25.281Z,88.00
2023-02-06T06:58:25.277Z,92.00
2023-02-06T06:59:25.248Z,96.00
2023-02-06T07:00:25.276Z,100.00
2023-02-06T07:01:25.265Z,100.00
2023-02-06T07:02:25.220Z,104.00
2023-02-06T07:03:25.266Z,116.00
2023-02-06T07:04:25.203Z,120.00
2023-02-06T07:05:25.204Z,128.00
2023-02-06T07:06:25.195Z,132.00
2023-02-06T07:07:25.186Z,136.00
2023-02-06T07:08:25.192Z,140.00
2023-02-06T07:09:25.151Z,140.00
2023-02-06T07:10:25.195Z,140.00
2023-02-06T07:11:25.120Z,152.00
2023-02-06T07:12:25.124Z,156.00
2023-02-06T07:13:25.113Z,160.00
2023-02-06T07:14:25.134Z,168.00
2023-02-06T07:15:25.081Z,180.00
2023-02-06T07:16:25.136Z,188.00
2023-02-06T07:17:25.070Z,196.00
2023-02-06T07:18:25.119Z,204.00
2023-02-06T07:19:25.044Z,208.00
2023-02-06T07:20:25.037Z,216.00
2023-02-06T07:21:25.031Z,220.00
2023-02-06T07:22:25.027Z,228.00
2023-02-06T07:23:25.000Z,236.00
2023-02-06T07:24:24.998Z,252.00
2023-02-06T07:25:24.987Z,268.00
2023-02-06T07:26:24.978Z,288.00
2023-02-06T07:27:24.989Z,300.00
2023-02-06T07:28:24.950Z,308.00
2023-02-06T07:29:24.960Z,316.00
2023-02-06T07:30:24.969Z,324.00
2023-02-06T07:31:24.930Z,336.00
2023-02-06T07:32:25.068Z,356.00
2023-02-06T07:33:25.698Z,380.00
2023-02-06T07:34:24.928Z,400.00
2023-02-06T07:35:24.909Z,428.00
2023-02-06T07:36:25.017Z,464.00
2023-02-06T07:37:24.871Z,480.00
2023-02-06T07:38:24.911Z,496.00
2023-02-06T07:39:24.896Z,484.00
2023-02-06T07:40:26.281Z,480.00
2023-02-06T07:41:24.824Z,492.00
2023-02-06T07:42:24.836Z,516.00
2023-02-06T07:43:24.838Z,544.00
2023-02-06T07:44:24.820Z,588.00
2023-02-06T07:45:24.789Z,628.00
2023-02-06T07:46:24.853Z,648.00
2023-02-06T07:47:24.781Z,688.00
2023-02-06T07:48:24.755Z,720.00
2023-02-06T07:49:24.742Z,740.00
2023-02-06T07:50:24.745Z,776.00
2023-02-06T07:51:24.747Z,800.00
2023-02-06T07:52:24.715Z,796.00
2023-02-06T07:53:24.734Z,816.00
2023-02-06T07:54:24.761Z,868.00
2023-02-06T07:55:24.693Z,936.00
2023-02-06T07:56:24.660Z,996.00
2023-02-06T07:57:24.651Z,1032.00
2023-02-06T07:58:24.651Z,984.00
2023-02-06T07:59:24.667Z,964.00
2023-02-06T08:00:24.656Z,984.00
2023-02-06T08:01:24.653Z,1004.00
2023-02-06T08:02:24.622Z,1044.00
2023-02-06T08:03:24.606Z,1032.00
2023-02-06T08:04:24.624Z,1052.00
2023-02-06T08:05:24.559Z,1080.00
2023-02-06T08:06:24.652Z,1092.00
2023-02-06T08:07:24.537Z,1124.00
2023-02-06T08:08:24.560Z,1096.00
2023-02-06T08:09:24.540Z,1088.00
2023-02-06T08:10:24.496Z,1024.00
2023-02-06T08:11:24.532Z,968.00
2023-02-06T08:12:24.511Z,956.00
2023-02-06T08:13:24.469Z,932.00
2023-02-06T08:14:24.461Z,904.00
2023-02-06T08:15:24.465Z,872.00
2023-02-06T08:16:24.497Z,824.00
2023-02-06T08:17:24.460Z,764.00
2023-02-06T08:18:24.421Z,732.00
2023-02-06T08:19:24.405Z,728.00
2023-02-06T08:20:24.602Z,780.00
2023-02-06T08:21:24.432Z,812.00
2023-02-06T08:22:24.378Z,844.00
2023-02-06T08:23:24.373Z,868.00
2023-02-06T08:24:24.425Z,904.00
2023-02-06T08:25:24.361Z,964.00
2023-02-06T08:26:24.370Z,1012.00
2023-02-06T08:27:24.334Z,1024.00
2023-02-06T08:28:24.382Z,1096.00
2023-02-06T08:29:24.305Z,1040.00
2023-02-06T08:30:24.499Z,968.00
2023-02-06T08:31:24.469Z,920.00
2023-02-06T08:32:24.300Z,936.00
2023-02-06T08:33:24.265Z,884.00
2023-02-06T08:34:24.262Z,824.00
2023-02-06T08:35:24.249Z,724.00
2023-02-06T08:36:24.246Z,692.00
2023-02-06T08:37:24.247Z,716.00
2023-02-06T08:38:24.227Z,788.00
2023-02-06T08:39:24.214Z,880.00
2023-02-06T08:40:24.260Z,1008.00
2023-02-06T08:41:24.177Z,1140.00
2023-02-06T08:42:24.169Z,1260.00
2023-02-06T08:43:24.177Z,1472.00
2023-02-06T08:44:24.153Z,1672.00
2023-02-06T08:45:24.178Z,1616.00
2023-02-06T08:46:24.173Z,1568.00
2023-02-06T08:47:24.131Z,1568.00
2023-02-06T08:48:24.110Z,1532.00
2023-02-06T08:49:24.136Z,1608.00
2023-02-06T08:50:24.176Z,1672.00
2023-02-06T08:51:24.083Z,1708.00
2023-02-06T08:52:24.650Z,1392.00
2023-02-06T08:53:24.075Z,1160.00
2023-02-06T08:54:24.064Z,1152.00
2023-02-06T08:55:25.193Z,1236.00
2023-02-06T08:56:24.023Z,1324.00
2023-02-06T08:57:24.012Z,1360.00
2023-02-06T08:58:23.999Z,1444.00
2023-02-06T08:59:24.040Z,1712.00
2023-02-06T09:00:23.986Z,1964.00
2023-02-06T09:01:23.997Z,2280.00
2023-02-06T09:02:24.144Z,2500.00
2023-02-06T09:03:23.981Z,2880.00
2023-02-06T09:04:23.935Z,2872.00
2023-02-06T09:05:23.951Z,2868.00
2023-02-06T09:06:23.903Z,2820.00
2023-02-06T09:07:23.925Z,2468.00
2023-02-06T09:08:23.972Z,2076.00
2023-02-06T09:09:23.891Z,1808.00
2023-02-06T09:10:27.848Z,1696.00
2023-02-06T09:11:23.870Z,1648.00
2023-02-06T09:12:23.867Z,1608.00
2023-02-06T09:13:23.832Z,1564.00
2023-02-06T09:14:23.828Z,1628.00
2023-02-06T09:15:23.913Z,1612.00
2023-02-06T09:16:23.877Z,1584.00
2023-02-06T09:17:23.791Z,1484.00
2023-02-06T09:18:23.820Z,1432.00
2023-02-06T09:19:23.772Z,1344.00
2023-02-06T09:20:23.793Z,1368.00
2023-02-06T09:21:23.795Z,1392.00
2023-02-06T09:22:23.741Z,1312.00
2023-02-06T09:23:23.733Z,1204.00
2023-02-06T09:24:23.771Z,1192.00
2023-02-06T09:25:23.718Z,1040.00
2023-02-06T09:26:23.709Z,1000.00
2023-02-06T09:27:23.778Z,1008.00
2023-02-06T09:28:23.802Z,1028.00
2023-02-06T09:29:23.670Z,1104.00
2023-02-06T09:30:24.701Z,1040.00
2023-02-06T09:31:23.916Z,1012.00
2023-02-06T09:32:24.163Z,988.00
2023-02-06T09:33:23.708Z,952.00
2023-02-06T09:34:25.162Z,848.00
2023-02-06T09:35:23.662Z,788.00
2023-02-06T09:36:23.604Z,836.00
2023-02-06T09:37:23.660Z,868.00
2023-02-06T09:38:23.647Z,840.00
2023-02-06T09:39:23.605Z,852.00
2023-02-06T09:40:23.628Z,904.00
2023-02-06T09:41:23.677Z,912.00
2023-02-06T09:42:23.783Z,924.00
2023-02-06T09:43:23.515Z,1036.00
2023-02-06T09:44:23.572Z,1008.00
2023-02-06T09:45:23.528Z,916.00
2023-02-06T09:46:23.817Z,860.00
2023-02-06T09:47:23.540Z,840.00
2023-02-06T09:48:23.549Z,848.00
2023-02-06T09:49:23.515Z,752.00
2023-02-06T09:50:23.458Z,776.00
2023-02-06T09:51:23.538Z,856.00
2023-02-06T09:52:23.514Z,900.00
2023-02-06T09:53:23.521Z,964.00
2023-02-06T09:54:23.468Z,1064.00
2023-02-06T09:55:23.384Z,1104.00
2023-02-06T09:56:23.495Z,1048.00
2023-02-06T09:57:23.473Z,1012.00
2023-02-06T09:58:23.525Z,972.00
2023-02-06T09:59:23.416Z,988.00
2023-02-06T10:00:34.143Z,1112.00
2023-02-06T10:01:24.365Z,1044.00
2023-02-06T10:02:24.168Z,1064.00
2023-02-06T10:03:23.439Z,1204.00
2023-02-06T10:04:23.458Z,1128.00
2023-02-06T10:05:23.439Z,1192.00
2023-02-06T10:06:23.455Z,1160.00
2023-02-06T10:07:24.733Z,900.00
2023-02-06T10:08:24.156Z,896.00
2023-02-06T10:09:23.326Z,924.00
2023-02-06T10:10:23.334Z,1036.00
2023-02-06T10:11:23.302Z,836.00
2023-02-06T10:12:23.228Z,792.00
2023-02-06T10:13:23.286Z,976.00
2023-02-06T10:14:23.205Z,916.00
2023-02-06T10:15:23.191Z,844.00
2023-02-06T10:16:23.192Z,920.00
2023-02-06T10:17:23.190Z,1048.00
2023-02-06T10:18:23.153Z,1072.00
2023-02-06T10:19:23.188Z,1052.00
2023-02-06T10:20:23.141Z,1248.00
2023-02-06T10:21:23.128Z,1448.00
2023-02-06T10:22:23.235Z,1204.00
2023-02-06T10:23:23.175Z,1448.00
2023-02-06T10:24:23.107Z,1552.00
2023-02-06T10:25:23.099Z,1664.00
2023-02-06T10:26:23.090Z,1756.00
2023-02-06T10:27:23.745Z,1844.00
2023-02-06T10:28:23.344Z,1956.00
2023-02-06T10:29:23.083Z,1788.00
2023-02-06T10:30:23.145Z,1960.00
2023-02-06T10:31:23.167Z,2284.00
2023-02-06T10:32:23.056Z,2304.00
2023-02-06T10:33:25.769Z,2468.00
2023-02-06T10:34:23.676Z,2808.00
2023-02-06T10:35:23.675Z,2440.00
2023-02-06T10:36:23.131Z,2272.00
2023-02-06T10:37:23.081Z,2568.00
2023-02-06T10:38:23.059Z,2600.00
2023-02-06T10:39:22.968Z,2280.00
2023-02-06T10:40:22.956Z,2368.00
2023-02-06T10:41:22.990Z,2396.00
2023-02-06T10:42:23.028Z,2344.00
2023-02-06T10:43:22.948Z,2712.00
2023-02-06T10:44:22.935Z,2728.00
2023-02-06T10:45:22.946Z,2752.00
2023-02-06T10:46:22.881Z,2548.00
2023-02-06T10:47:22.880Z,2796.00
2023-02-06T10:48:22.960Z,2220.00
2023-02-06T10:49:22.877Z,2264.00
2023-02-06T10:50:22.836Z,2216.00
2023-02-06T10:51:22.851Z,1860.00
2023-02-06T10:52:22.826Z,1672.00
2023-02-06T10:53:22.844Z,1432.00
2023-02-06T10:54:22.966Z,1380.00
2023-02-06T10:55:22.790Z,1376.00
2023-02-06T10:56:22.798Z,1568.00
2023-02-06T10:57:23.676Z,1528.00
2023-02-06T10:58:22.827Z,1648.00
2023-02-06T10:59:22.792Z,1836.00
2023-02-06T11:00:22.733Z,1836.00
2023-02-06T11:01:26.476Z,2056.00
2023-02-06T11:02:22.853Z,2672.00
2023-02-06T11:03:22.725Z,2056.00
2023-02-06T11:04:22.660Z,2064.00
2023-02-06T11:05:22.665Z,1952.00
2023-02-06T11:06:22.660Z,2156.00
2023-02-06T11:07:22.652Z,1916.00
2023-02-06T11:08:22.640Z,1768.00
2023-02-06T11:09:22.594Z,1828.00
2023-02-06T11:10:22.618Z,1800.00
2023-02-06T11:11:22.573Z,1572.00
2023-02-06T11:12:22.581Z,1516.00
2023-02-06T11:13:22.598Z,1532.00
2023-02-06T11:14:24.886Z,1460.00
2023-02-06T11:15:22.546Z,1440.00
2023-02-06T11:16:22.674Z,1472.00
2023-02-06T11:17:22.526Z,1416.00
2023-02-06T11:18:22.538Z,1512.00
2023-02-06T11:19:22.492Z,1700.00
2023-02-06T11:20:22.501Z,1660.00
2023-02-06T11:21:22.553Z,1828.00
2023-02-06T11:22:22.510Z,1652.00
2023-02-06T11:23:22.450Z,1572.00
2023-02-06T11:24:22.447Z,1532.00
2023-02-06T11:25:22.424Z,1552.00
2023-02-06T11:26:22.446Z,1584.00
2023-02-06T11:27:22.410Z,1452.00
2023-02-06T11:28:22.443Z,1500.00
2023-02-06T11:29:22.390Z,1676.00
2023-02-06T11:30:22.406Z,1796.00
2023-02-06T11:31:22.444Z,1500.00
2023-02-06T11:32:22.389Z,1608.00
2023-02-06T11:33:22.350Z,1648.00
2023-02-06T11:34:22.339Z,1660.00
2023-02-06T11:35:22.327Z,2116.00
2023-02-06T11:36:25.907Z,2052.00
2023-02-06T11:37:23.861Z,2332.00
2023-02-06T11:38:22.338Z,2100.00
2023-02-06T11:39:22.331Z,1828.00
2023-02-06T11:40:22.329Z,2072.00
2023-02-06T11:41:22.285Z,2256.00
2023-02-06T11:42:22.316Z,2500.00
2023-02-06T11:43:22.237Z,2412.00
2023-02-06T11:44:22.233Z,2164.00
2023-02-06T11:45:22.213Z,2172.00
2023-02-06T11:46:22.233Z,1992.00
2023-02-06T11:47:22.244Z,1636.00
2023-02-06T11:48:22.235Z,1364.00
2023-02-06T11:49:22.210Z,1432.00
2023-02-06T11:50:22.170Z,1680.00
2023-02-06T11:51:22.154Z,1804.00
2023-02-06T11:52:24.188Z,2104.00
2023-02-06T11:53:23.192Z,1876.00
2023-02-06T11:54:22.490Z,1672.00
2023-02-06T11:55:22.381Z,1596.00
2023-02-06T11:56:22.760Z,1628.00
2023-02-06T11:57:22.398Z,1500.00
2023-02-06T11:58:22.847Z,1252.00
2023-02-06T11:59:22.069Z,1268.00
2023-02-06T12:00:22.062Z,1280.00
2023-02-06T12:01:22.060Z,1332.00
2023-02-06T12:02:22.098Z,1896.00
2023-02-06T12:03:22.042Z,1944.00
2023-02-06T12:04:22.048Z,1992.00
2023-02-06T12:05:21.994Z,1944.00
2023-02-06T12:06:22.002Z,1712.00
2023-02-06T12:07:21.982Z,1732.00
2023-02-06T12:08:21.977Z,1584.00
2023-02-06T12:09:22.001Z,1896.00
2023-02-06T12:10:21.963Z,1904.00
2023-02-06T12:11:21.946Z,1784.00
2023-02-06T12:12:22.061Z,1872.00
2023-02-06T12:13:21.929Z,2332.00
2023-02-06T12:14:21.916Z,2000.00
2023-02-06T12:15:44.804Z,2348.00
2023-02-06T12:16:23.123Z,3060.00
2023-02-06T12:17:21.876Z,2604.00
2023-02-06T12:18:21.887Z,1792.00
2023-02-06T12:19:21.868Z,1564.00
2023-02-06T12:20:21.905Z,2056.00
2023-02-06T12:21:21.833Z,2308.00
2023-02-06T12:22:21.908Z,2108.00
2023-02-06T12:23:21.856Z,2040.00
2023-02-06T12:24:21.809Z,2284.00
2023-02-06T12:25:21.825Z,1964.00
2023-02-06T12:26:21.793Z,1760.00
2023-02-06T12:27:21.778Z,1468.00
2023-02-06T12:28:21.808Z,1308.00
2023-02-06T12:29:21.755Z,1196.00
2023-02-06T12:30:21.786Z,1344.00
2023-02-06T12:31:21.920Z,1940.00
2023-02-06T12:32:21.747Z,2096.00
2023-02-06T12:33:21.705Z,1948.00
2023-02-06T12:34:21.686Z,1748.00
2023-02-06T12:35:21.689Z,1392.00
2023-02-06T12:36:21.744Z,1312.00
2023-02-06T12:37:21.715Z,1520.00
2023-02-06T12:38:21.670Z,1640.00
2023-02-06T12:39:21.697Z,1644.00
2023-02-06T12:40:21.663Z,1640.00
2023-02-06T12:41:21.651Z,1536.00
2023-02-06T12:42:21.606Z,1436.00
2023-02-06T12:43:21.596Z,1592.00
2023-02-06T12:44:21.584Z,1420.00
2023-02-06T12:45:21.582Z,1548.00
2023-02-06T12:46:21.674Z,1748.00